createdAt,value
2018-08-10T00:01:22.675Z,21.68
2018-08-10T00:03:51.987Z,21.56
2018-08-10T00:06:21.409Z,21.41
2018-08-10T00:08:50.692Z,21.17
2018-08-10T00:11:19.955Z,21.37
2018-08-10T00:13:49.275Z,21.38
2018-08-10T00:16:18.987Z,21.30
2018-08-10T00:18:48.287Z,21.58
2018-08-10T00:21:17.551Z,21.40
2018-08-10T00:23:46.884Z,21.36
2018-08-10T00:26:16.359Z,21.65
2018-08-10T00:28:45.647Z,21.46
2018-08-10T00:31:15.030Z,21.45
2018-08-10T00:33:44.279Z,21.29
2018-08-10T00:36:13.549Z,21.26
2018-08-10T00:38:42.845Z,21.31
2018-08-10T00:41:12.131Z,21.23
2018-08-10T00:43:41.460Z,20.95
2018-08-10T00:46:10.746Z,21.13
2018-08-10T00:48:39.986Z,20.96
2018-08-10T00:51:09.384Z,21.03
2018-08-10T00:53:38.750Z,20.78
2018-08-10T00:56:08.035Z,21.09
2018-08-10T00:58:37.332Z,20.97
2018-08-10T01:01:06.827Z,21.13
2018-08-10T01:03:36.065Z,21.16
2018-08-10T01:06:05.350Z,21.11
2018-08-10T01:08:34.652Z,21.03
2018-08-10T01:11:04.260Z,21.13
2018-08-10T01:13:33.741Z,21.13
2018-08-10T01:16:03.005Z,20.96
2018-08-10T01:18:32.366Z,20.78
2018-08-10T01:21:01.663Z,20.88
2018-08-10T01:23:31.207Z,20.77
2018-08-10T01:26:00.500Z,20.85
2018-08-10T01:28:29.831Z,21.02
2018-08-10T01:30:59.376Z,21.08
2018-08-10T01:33:28.889Z,21.09
2018-08-10T01:35:58.475Z,21.07
2018-08-10T01:38:27.903Z,21.17
2018-08-10T01:40:57.394Z,21.18
2018-08-10T01:43:26.946Z,21.18
2018-08-10T01:45:56.468Z,21.14
2018-08-10T01:48:25.878Z,21.19
2018-08-10T01:50:55.651Z,21.20
2018-08-10T01:53:25.040Z,20.94
2018-08-10T01:55:54.489Z,20.92
2018-08-10T01:58:24.044Z,20.91
2018-08-10T02:00:53.380Z,21.02
2018-08-10T02:03:22.806Z,21.15
2018-08-10T02:05:52.339Z,21.23
2018-08-10T02:08:23.051Z,20.98
2018-08-10T02:10:52.572Z,21.12
2018-08-10T02:13:22.057Z,21.00
2018-08-10T02:15:51.443Z,21.09
2018-08-10T02:18:21.079Z,21.20
2018-08-10T02:20:50.828Z,21.23
2018-08-10T02:23:20.289Z,20.83
2018-08-10T02:25:49.597Z,20.65
2018-08-10T02:28:18.859Z,20.90
2018-08-10T02:30:49.646Z,21.05
2018-08-10T02:33:19.208Z,21.07
2018-08-10T02:35:49.021Z,21.00
2018-08-10T02:38:18.859Z,21.22
2018-08-10T02:40:48.334Z,21.23
2018-08-10T02:43:17.775Z,21.06
2018-08-10T02:45:47.429Z,21.13
2018-08-10T02:48:16.954Z,21.20
2018-08-10T02:50:46.390Z,21.33
2018-08-10T02:53:16.411Z,21.14
2018-08-10T02:55:52.709Z,21.17
2018-08-10T02:58:22.378Z,21.00
2018-08-10T03:00:51.967Z,21.15
2018-08-10T03:03:21.311Z,21.20
2018-08-10T03:05:50.723Z,21.20
2018-08-10T03:08:20.211Z,20.92
2018-08-10T03:10:49.854Z,21.13
2018-08-10T03:13:19.813Z,21.09
2018-08-10T03:15:49.240Z,20.91
2018-08-10T03:18:18.687Z,21.16
2018-08-10T03:20:48.032Z,21.21
2018-08-10T03:23:17.445Z,20.90
2018-08-10T03:25:46.729Z,20.82
2018-08-10T03:28:16.006Z,21.01
2018-08-10T03:30:45.314Z,20.84
2018-08-10T03:33:14.647Z,20.75
2018-08-10T03:35:44.460Z,20.75
2018-08-10T03:38:13.797Z,20.83
2018-08-10T03:40:43.075Z,20.89
2018-08-10T03:43:12.712Z,20.78
2018-08-10T03:45:42.003Z,20.89
2018-08-10T03:48:11.267Z,20.73
2018-08-10T03:50:40.604Z,20.50
2018-08-10T03:53:10.114Z,20.43
2018-08-10T03:55:39.443Z,20.65
2018-08-10T03:58:09.008Z,20.54
2018-08-10T04:00:38.377Z,20.47
2018-08-10T04:03:08.093Z,20.39
2018-08-10T04:05:37.476Z,20.54
2018-08-10T04:08:06.740Z,20.65
2018-08-10T04:10:36.034Z,20.82
2018-08-10T04:13:05.398Z,20.50
2018-08-10T04:15:34.664Z,20.59
2018-08-10T04:18:04.099Z,20.52
2018-08-10T04:20:33.960Z,20.45
2018-08-10T04:23:03.305Z,20.19
2018-08-10T04:25:32.577Z,20.21
2018-08-10T04:28:01.880Z,20.20
2018-08-10T04:30:31.132Z,20.38
2018-08-10T04:33:00.402Z,20.09
2018-08-10T04:35:29.804Z,20.11
2018-08-10T04:37:59.172Z,20.09
2018-08-10T04:40:29.754Z,20.18
2018-08-10T04:42:59.502Z,20.23
2018-08-10T04:45:28.818Z,20.32
2018-08-10T04:48:02.696Z,19.99
2018-08-10T04:50:32.949Z,19.92
2018-08-10T04:53:02.248Z,19.92
2018-08-10T04:55:31.641Z,20.03
2018-08-10T04:58:00.897Z,19.87
2018-08-10T05:00:30.219Z,19.96
2018-08-10T05:03:00.064Z,20.03
2018-08-10T05:05:29.330Z,19.93
2018-08-10T05:07:58.703Z,19.81
2018-08-10T05:10:28.050Z,19.67
2018-08-10T05:12:57.351Z,19.89
2018-08-10T05:15:26.699Z,19.74
2018-08-10T05:17:55.995Z,19.44
2018-08-10T05:20:25.299Z,19.37
2018-08-10T05:22:54.738Z,19.48
2018-08-10T05:25:24.600Z,19.84
2018-08-10T05:27:53.900Z,19.76
2018-08-10T05:30:23.199Z,19.66
2018-08-10T05:32:52.557Z,19.82
2018-08-10T05:35:21.917Z,19.60
2018-08-10T05:37:51.283Z,19.60
2018-08-10T05:40:20.682Z,19.42
2018-08-10T05:42:50.032Z,19.33
2018-08-10T05:45:19.344Z,19.58
2018-08-10T05:47:49.145Z,19.52
2018-08-10T05:50:18.798Z,19.67
2018-08-10T05:52:48.195Z,19.72
2018-08-10T05:55:17.555Z,19.51
2018-08-10T05:57:46.862Z,19.49
2018-08-10T06:00:16.206Z,19.60
2018-08-10T06:02:45.866Z,19.90
2018-08-10T06:05:15.248Z,19.85
2018-08-10T06:07:44.618Z,20.03
2018-08-10T06:10:14.129Z,19.95
2018-08-10T06:12:43.608Z,19.96
2018-08-10T06:15:12.934Z,19.87
2018-08-10T06:17:42.294Z,19.92
2018-08-10T06:20:12.339Z,19.92
2018-08-10T06:22:41.953Z,20.06
2018-08-10T06:25:11.367Z,20.27
2018-08-10T06:27:40.640Z,20.44
2018-08-10T06:30:12.318Z,20.32
2018-08-10T06:32:41.604Z,20.13
2018-08-10T06:35:10.967Z,20.15
2018-08-10T06:37:40.281Z,20.30
2018-08-10T06:40:09.591Z,20.41
2018-08-10T06:42:38.945Z,20.48
2018-08-10T06:45:08.327Z,20.67
2018-08-10T06:47:38.940Z,20.90
2018-08-10T06:50:08.830Z,20.63
2018-08-10T06:52:38.530Z,20.62
2018-08-10T06:55:07.842Z,20.56
2018-08-10T06:57:37.518Z,20.32
2018-08-10T07:00:08.051Z,20.32
2018-08-10T07:02:37.386Z,20.51
2018-08-10T07:05:07.740Z,20.29
2018-08-10T07:07:37.567Z,20.36
2018-08-10T07:10:08.114Z,20.90
2018-08-10T07:12:37.467Z,21.28
2018-08-10T07:15:07.452Z,21.20
2018-08-10T07:17:36.787Z,21.42
2018-08-10T07:20:07.202Z,21.14
2018-08-10T07:22:36.819Z,20.88
2018-08-10T07:25:06.815Z,20.84
2018-08-10T07:27:36.175Z,21.42
2018-08-10T07:30:05.711Z,21.39
2018-08-10T07:32:35.011Z,21.37
2018-08-10T07:35:04.410Z,21.73
2018-08-10T07:37:34.166Z,21.87
2018-08-10T07:40:03.532Z,21.53
2018-08-10T07:42:32.882Z,21.30
2018-08-10T07:45:02.324Z,21.56
2018-08-10T07:47:31.716Z,21.39
2018-08-10T07:50:01.055Z,21.43
2018-08-10T07:52:30.402Z,21.52
2018-08-10T07:54:59.729Z,22.00
2018-08-10T07:57:29.023Z,22.08
2018-08-10T07:59:58.464Z,21.75
2018-08-10T08:02:27.806Z,22.14
2018-08-10T08:04:57.167Z,22.51
2018-08-10T08:07:26.491Z,22.91
2018-08-10T08:09:55.841Z,22.65
2018-08-10T08:12:25.148Z,22.04
2018-08-10T08:14:54.491Z,22.05
2018-08-10T08:17:25.320Z,22.04
2018-08-10T08:19:54.847Z,22.22
2018-08-10T08:22:24.496Z,21.79
2018-08-10T08:24:53.800Z,21.36
2018-08-10T08:27:23.113Z,21.48
2018-08-10T08:29:52.494Z,21.64
2018-08-10T08:32:21.793Z,21.78
2018-08-10T08:34:51.261Z,22.06
2018-08-10T08:37:20.498Z,22.02
2018-08-10T08:40:32.812Z,21.85
2018-08-10T08:43:02.472Z,22.11
2018-08-10T08:46:09.161Z,22.07
2018-08-10T08:48:43.849Z,22.63
2018-08-10T08:51:20.134Z,22.54
2018-08-10T08:55:59.232Z,22.93
2018-08-10T08:58:28.968Z,23.19
2018-08-10T09:00:58.283Z,23.09
2018-08-10T09:03:44.819Z,23.27
2018-08-10T09:06:14.200Z,23.46
2018-08-10T09:09:47.670Z,23.51
2018-08-10T09:12:17.401Z,23.28
2018-08-10T09:15:20.244Z,23.46
2018-08-10T09:17:49.670Z,23.82
2018-08-10T09:20:19.181Z,23.94
2018-08-10T09:22:49.037Z,24.50
2018-08-10T09:25:19.487Z,23.99
2018-08-10T09:27:48.822Z,23.83
2018-08-10T09:30:18.888Z,23.76
2018-08-10T09:32:48.150Z,23.38
2018-08-10T09:35:17.507Z,23.60
2018-08-10T09:37:46.858Z,24.10
2018-08-10T09:40:18.858Z,24.27
2018-08-10T09:42:48.981Z,24.03
2018-08-10T09:45:19.257Z,24.51
2018-08-10T09:47:49.838Z,24.67
2018-08-10T09:50:19.879Z,24.75
2018-08-10T09:52:58.502Z,25.58
2018-08-10T09:55:31.697Z,25.75
2018-08-10T09:58:09.896Z,25.86
2018-08-10T10:00:44.368Z,26.27
2018-08-10T10:03:32.436Z,25.97
2018-08-10T10:06:01.787Z,26.58
2018-08-10T10:08:31.086Z,25.88
2018-08-10T10:11:00.425Z,25.93
2018-08-10T10:13:29.734Z,25.36
2018-08-10T10:15:59.133Z,25.75
2018-08-10T10:18:28.603Z,25.40
2018-08-10T10:20:58.012Z,26.01
2018-08-10T10:23:27.311Z,26.11
2018-08-10T10:25:56.675Z,25.86
2018-08-10T10:28:25.975Z,26.18
2018-08-10T10:30:55.324Z,26.51
2018-08-10T10:33:24.907Z,27.17
2018-08-10T10:35:54.255Z,26.87
2018-08-10T10:38:23.779Z,26.62
2018-08-10T10:40:53.502Z,26.58
2018-08-10T10:43:22.826Z,26.43
2018-08-10T10:45:52.145Z,26.53
2018-08-10T10:48:21.562Z,27.03
2018-08-10T10:50:51.176Z,27.25
2018-08-10T10:53:20.432Z,26.82
2018-08-10T10:55:49.914Z,27.52
2018-08-10T10:58:19.220Z,27.63
2018-08-10T11:00:48.527Z,27.43
2018-08-10T11:03:17.920Z,27.43
2018-08-10T11:05:47.244Z,27.84
2018-08-10T11:08:16.777Z,27.60
2018-08-10T11:10:46.095Z,27.86
2018-08-10T11:13:15.587Z,27.84
2018-08-10T11:15:44.983Z,28.03
2018-08-10T11:18:14.355Z,27.39
2018-08-10T11:20:43.641Z,27.46
2018-08-10T11:23:13.149Z,27.32
2018-08-10T11:25:42.688Z,27.00
2018-08-10T11:28:12.044Z,27.40
2018-08-10T11:30:41.421Z,26.86
2018-08-10T11:33:10.787Z,26.79
2018-08-10T11:35:40.127Z,27.09
2018-08-10T11:38:09.476Z,27.29
2018-08-10T11:40:38.806Z,27.78
2018-08-10T11:43:08.218Z,28.25
2018-08-10T11:45:37.546Z,26.96
2018-08-10T11:48:07.287Z,26.95
2018-08-10T11:50:36.697Z,27.44
2018-08-10T11:53:06.032Z,27.45
2018-08-10T11:55:35.580Z,27.49
2018-08-10T11:58:05.100Z,27.59
2018-08-10T12:00:34.407Z,28.21
2018-08-10T12:03:03.760Z,28.44
2018-08-10T12:05:33.106Z,28.27
2018-08-10T12:08:02.437Z,27.80
2018-08-10T12:10:32.458Z,27.75
2018-08-10T12:13:02.092Z,28.32
2018-08-10T12:15:38.047Z,28.20
2018-08-10T12:18:07.386Z,28.61
2018-08-10T12:20:36.720Z,28.48
2018-08-10T12:23:06.074Z,28.41
2018-08-10T12:25:35.366Z,27.84
2018-08-10T12:28:04.720Z,27.51
2018-08-10T12:30:34.188Z,26.73
2018-08-10T12:33:03.578Z,27.39
2018-08-10T12:35:32.904Z,27.94
2018-08-10T12:38:02.373Z,28.27
2018-08-10T12:40:31.713Z,27.66
2018-08-10T12:43:01.057Z,27.01
2018-08-10T12:45:30.695Z,26.30
2018-08-10T12:48:00.004Z,26.65
2018-08-10T12:50:29.355Z,27.25
2018-08-10T12:52:59.176Z,27.60
2018-08-10T12:55:28.484Z,27.72
2018-08-10T12:57:57.829Z,27.69
2018-08-10T13:00:27.176Z,27.43
2018-08-10T13:02:56.568Z,26.37
2018-08-10T13:05:25.884Z,26.37
2018-08-10T13:07:55.257Z,26.32
2018-08-10T13:10:24.636Z,26.61
2018-08-10T13:12:54.272Z,26.08
2018-08-10T13:15:23.901Z,26.61
2018-08-10T13:17:53.238Z,26.94
2018-08-10T13:20:22.597Z,26.56
2018-08-10T13:22:52.087Z,26.29
2018-08-10T13:25:21.485Z,26.66
2018-08-10T13:27:50.785Z,26.43
2018-08-10T13:30:20.188Z,26.44
2018-08-10T13:32:49.510Z,27.05
2018-08-10T13:35:18.920Z,26.44
2018-08-10T13:37:48.289Z,26.69
2018-08-10T13:40:17.756Z,27.62
2018-08-10T13:42:47.145Z,28.36
2018-08-10T13:45:17.147Z,27.84
2018-08-10T13:47:46.436Z,27.75
2018-08-10T13:50:16.847Z,27.34
2018-08-10T13:52:46.410Z,27.63
2018-08-10T13:55:17.850Z,26.80
2018-08-10T13:57:48.576Z,26.80
2018-08-10T14:00:23.197Z,26.14
2018-08-10T14:02:54.533Z,25.78
2018-08-10T14:05:24.438Z,25.73
2018-08-10T14:07:54.327Z,26.25
2018-08-10T14:10:23.965Z,26.66
2018-08-10T14:12:53.278Z,26.56
2018-08-10T14:15:22.706Z,26.34
2018-08-10T14:17:52.589Z,26.47
2018-08-10T14:20:21.984Z,26.66
2018-08-10T14:22:51.302Z,27.01
2018-08-10T14:25:20.782Z,27.28
2018-08-10T14:27:50.132Z,27.99
2018-08-10T14:30:19.494Z,28.39
2018-08-10T14:32:48.988Z,28.76
2018-08-10T14:35:18.467Z,28.71
2018-08-10T14:37:48.048Z,28.61
2018-08-10T14:40:18.662Z,28.61
2018-08-10T14:42:48.109Z,28.71
2018-08-10T14:45:17.544Z,28.54
2018-08-10T14:47:46.894Z,28.33
2018-08-10T14:50:16.322Z,27.51
2018-08-10T14:52:45.658Z,27.52
2018-08-10T14:55:16.439Z,27.72
2018-08-10T14:57:45.778Z,27.31
2018-08-10T15:00:19.077Z,27.28
2018-08-10T15:02:49.019Z,26.93
2018-08-10T15:05:18.718Z,26.95
2018-08-10T15:07:48.182Z,26.71
2018-08-10T15:10:18.294Z,26.46
2018-08-10T15:12:48.551Z,26.73
2018-08-10T15:15:18.965Z,26.42
2018-08-10T15:17:48.805Z,26.39
2018-08-10T15:20:20.592Z,26.38
2018-08-10T15:22:49.960Z,26.45
2018-08-10T15:25:50.944Z,26.66
2018-08-10T15:28:20.278Z,26.61
2018-08-10T15:30:49.679Z,26.79
2018-08-10T15:33:18.907Z,26.79
2018-08-10T15:35:48.210Z,26.74
2018-08-10T15:38:17.627Z,26.34
2018-08-10T15:40:47.188Z,26.31
2018-08-10T15:43:16.495Z,26.61
2018-08-10T15:45:45.867Z,26.82
2018-08-10T15:48:15.255Z,26.98
2018-08-10T15:50:44.570Z,27.18
2018-08-10T15:53:13.902Z,26.98
2018-08-10T15:55:43.213Z,26.78
2018-08-10T15:58:12.557Z,27.21
2018-08-10T16:00:41.809Z,27.63
2018-08-10T16:03:11.366Z,27.45
2018-08-10T16:05:40.783Z,27.21
2018-08-10T16:08:10.166Z,26.42
2018-08-10T16:10:39.654Z,26.68
2018-08-10T16:13:09.003Z,26.84
2018-08-10T16:15:38.299Z,26.61
2018-08-10T16:18:08.118Z,26.20
2018-08-10T16:20:37.453Z,25.86
2018-08-10T16:23:06.820Z,26.11
2018-08-10T16:25:36.388Z,25.94
2018-08-10T16:28:05.723Z,25.71
2018-08-10T16:30:35.155Z,26.08
2018-08-10T16:33:04.665Z,26.39
2018-08-10T16:35:34.032Z,26.68
2018-08-10T16:38:03.441Z,26.72
2018-08-10T16:40:33.215Z,26.10
2018-08-10T16:43:02.623Z,26.26
2018-08-10T16:45:31.910Z,26.51
2018-08-10T16:48:01.379Z,26.18
2018-08-10T16:50:30.809Z,26.32
2018-08-10T16:53:00.340Z,25.95
2018-08-10T16:55:29.719Z,26.01
2018-08-10T16:57:59.068Z,26.26
2018-08-10T17:00:28.476Z,26.20
2018-08-10T17:02:57.809Z,25.72
2018-08-10T17:05:27.100Z,25.94
2018-08-10T17:07:56.395Z,25.86
2018-08-10T17:10:26.047Z,26.02
2018-08-10T17:12:55.334Z,25.81
2018-08-10T17:15:24.712Z,25.55
2018-08-10T17:17:54.070Z,25.40
2018-08-10T17:20:23.445Z,25.59
2018-08-10T17:22:52.790Z,25.70
2018-08-10T17:25:22.339Z,25.67
2018-08-10T17:27:51.701Z,25.57
2018-08-10T17:30:21.119Z,25.73
2018-08-10T17:32:50.641Z,25.43
2018-08-10T17:35:20.119Z,25.42
2018-08-10T17:37:49.569Z,25.42
2018-08-10T17:40:19.097Z,25.44
2018-08-10T17:42:48.429Z,25.56
2018-08-10T17:45:18.545Z,25.56
2018-08-10T17:47:47.914Z,25.48
2018-08-10T17:50:19.924Z,25.50
2018-08-10T17:52:51.286Z,25.38
2018-08-10T17:55:21.230Z,25.25
2018-08-10T17:57:50.519Z,25.13
2018-08-10T18:00:22.351Z,24.94
2018-08-10T18:02:52.000Z,25.12
2018-08-10T18:05:21.419Z,25.03
2018-08-10T18:07:50.823Z,24.78
2018-08-10T18:10:20.702Z,24.47
2018-08-10T18:12:49.979Z,24.69
2018-08-10T18:15:20.843Z,24.76
2018-08-10T18:17:50.239Z,24.76
2018-08-10T18:20:20.839Z,24.84
2018-08-10T18:22:51.238Z,24.71
2018-08-10T18:25:22.008Z,24.56
2018-08-10T18:27:51.368Z,24.56
2018-08-10T18:30:23.840Z,24.65
2018-08-10T18:32:53.316Z,24.68
2018-08-10T18:35:22.690Z,24.57
2018-08-10T18:37:52.565Z,24.53
2018-08-10T18:40:22.133Z,24.46
2018-08-10T18:42:51.702Z,24.33
2018-08-10T18:45:22.622Z,24.38
2018-08-10T18:47:52.060Z,24.25
2018-08-10T18:50:21.900Z,24.00
2018-08-10T18:52:51.364Z,23.92
2018-08-10T18:55:22.535Z,24.04
2018-08-10T18:57:52.807Z,23.67
2018-08-10T19:00:25.400Z,23.59
2018-08-10T19:02:55.426Z,23.55
2018-08-10T19:05:24.777Z,23.62
2018-08-10T19:07:54.241Z,23.71
2018-08-10T19:10:25.393Z,23.60
2018-08-10T19:12:54.783Z,23.66
2018-08-10T19:15:24.211Z,23.55
2018-08-10T19:17:53.669Z,23.55
2018-08-10T19:20:23.028Z,23.48
2018-08-10T19:22:52.364Z,23.40
2018-08-10T19:25:21.775Z,23.33
2018-08-10T19:27:51.093Z,23.25
2018-08-10T19:30:22.138Z,23.06
2018-08-10T19:32:51.834Z,23.00
2018-08-10T19:35:21.180Z,22.86
2018-08-10T19:37:50.543Z,22.83
2018-08-10T19:40:20.625Z,22.81
2018-08-10T19:42:49.930Z,22.78
2018-08-10T19:45:19.489Z,22.76
2018-08-10T19:47:48.948Z,22.63
2018-08-10T19:50:22.389Z,22.49
2018-08-10T19:52:53.534Z,22.34
2018-08-10T19:55:23.307Z,22.43
2018-08-10T19:57:52.852Z,22.41
2018-08-10T20:00:22.256Z,22.44
2018-08-10T20:02:52.148Z,22.58
2018-08-10T20:05:21.470Z,22.57
2018-08-10T20:07:50.960Z,22.52
2018-08-10T20:10:20.438Z,22.58
2018-08-10T20:12:49.922Z,22.46
2018-08-10T20:15:19.932Z,22.44
2018-08-10T20:17:49.709Z,22.46
2018-08-10T20:20:19.902Z,22.28
2018-08-10T20:22:49.631Z,22.13
2018-08-10T20:25:19.081Z,22.06
2018-08-10T20:27:48.589Z,22.01
2018-08-10T20:30:19.643Z,21.93
2018-08-10T20:32:49.309Z,21.71
2018-08-10T20:35:20.360Z,21.60
2018-08-10T20:37:50.454Z,21.59
2018-08-10T20:40:21.063Z,21.66
2018-08-10T20:42:50.597Z,21.79
2018-08-10T20:45:20.856Z,21.82
2018-08-10T20:47:50.913Z,21.74
2018-08-10T20:50:21.144Z,21.62
2018-08-10T20:52:50.455Z,21.46
2018-08-10T20:55:19.930Z,21.53
2018-08-10T20:57:49.526Z,21.54
2018-08-10T21:00:19.393Z,21.67
2018-08-10T21:02:48.846Z,21.56
2018-08-10T21:05:18.288Z,21.65
2018-08-10T21:07:47.666Z,21.56
2018-08-10T21:10:17.739Z,21.38
2018-08-10T21:12:47.642Z,21.46
2018-08-10T21:15:17.605Z,21.51
2018-08-10T21:17:47.446Z,21.54
2018-08-10T21:20:17.770Z,21.41
2018-08-10T21:22:47.771Z,21.32
2018-08-10T21:25:17.094Z,21.22
2018-08-10T21:27:46.445Z,21.19
2018-08-10T21:30:18.466Z,21.14
2018-08-10T21:32:48.686Z,21.10
2018-08-10T21:35:18.304Z,21.00
2018-08-10T21:37:48.381Z,20.90
2018-08-10T21:40:17.532Z,20.81
2018-08-10T21:42:46.853Z,20.60
2018-08-10T21:45:16.205Z,20.54
2018-08-10T21:47:45.563Z,20.29
2018-08-10T21:50:15.459Z,20.14
2018-08-10T21:52:45.791Z,20.09
2018-08-10T21:55:15.247Z,20.03
2018-08-10T21:57:44.589Z,19.78
2018-08-10T22:00:43.593Z,19.84
2018-08-10T22:03:12.922Z,19.68
2018-08-10T22:05:42.211Z,19.60
2018-08-10T22:08:11.539Z,19.60
2018-08-10T22:10:41.202Z,19.55
2018-08-10T22:13:15.840Z,19.63
2018-08-10T22:15:50.374Z,19.65
2018-08-10T22:18:25.409Z,19.54
2018-08-10T22:20:55.415Z,19.33
2018-08-10T22:23:25.345Z,19.36
2018-08-10T22:25:54.721Z,18.91
2018-08-10T22:28:24.076Z,18.75
2018-08-10T22:30:54.732Z,18.67
2018-08-10T22:33:24.256Z,18.92
2018-08-10T22:35:53.616Z,18.95
2018-08-10T22:38:22.964Z,18.72
2018-08-10T22:40:52.395Z,18.61
2018-08-10T22:43:21.799Z,18.67
2018-08-10T22:45:51.331Z,18.61
2018-08-10T22:48:20.765Z,18.62
2018-08-10T22:50:50.117Z,18.63
2018-08-10T22:53:19.426Z,18.51
2018-08-10T22:55:48.839Z,18.54
2018-08-10T22:58:18.094Z,18.40
2018-08-10T23:00:47.361Z,18.46
2018-08-10T23:03:16.918Z,18.51
2018-08-10T23:05:46.274Z,18.44
2018-08-10T23:08:15.983Z,18.28
2018-08-10T23:10:45.284Z,18.24
2018-08-10T23:13:14.600Z,18.31
2018-08-10T23:15:43.917Z,18.25
2018-08-10T23:18:13.255Z,18.08
2018-08-10T23:20:42.566Z,18.14
2018-08-10T23:23:11.872Z,17.88
2018-08-10T23:25:41.678Z,17.84
2018-08-10T23:28:10.965Z,17.78
2018-08-10T23:30:40.317Z,17.87
2018-08-10T23:33:09.745Z,17.74
2018-08-10T23:35:39.038Z,17.74
2018-08-10T23:38:08.373Z,17.71
2018-08-10T23:40:37.721Z,17.71
2018-08-10T23:43:07.643Z,17.77
2018-08-10T23:45:37.031Z,17.41
2018-08-10T23:48:06.759Z,17.44
2018-08-10T23:50:36.058Z,17.17
2018-08-10T23:53:05.358Z,16.91
2018-08-10T23:55:34.703Z,16.79
2018-08-10T23:58:04.104Z,16.89
